createdAt,value
2023-02-19T00:00:04.779Z,12.22
2023-02-19T00:02:42.683Z,12.22
2023-02-19T00:05:12.635Z,12.24
2023-02-19T00:07:41.079Z,12.23
2023-02-19T00:10:09.806Z,12.28
2023-02-19T00:12:38.157Z,12.32
2023-02-19T00:15:07.137Z,12.27
2023-02-19T00:17:35.470Z,12.27
2023-02-19T00:20:03.889Z,12.31
2023-02-19T00:22:33.628Z,12.29
2023-02-19T00:25:02.007Z,12.31
2023-02-19T00:27:30.310Z,12.40
2023-02-19T00:29:58.693Z,12.24
2023-02-19T00:32:27.085Z,11.89
2023-02-19T00:34:55.455Z,12.26
2023-02-19T00:37:23.785Z,12.13
2023-02-19T00:39:53.507Z,12.26
2023-02-19T00:42:21.925Z,12.23
2023-02-19T00:44:50.371Z,12.26
2023-02-19T00:47:21.634Z,12.18
2023-02-19T00:49:50.123Z,12.17
2023-02-19T00:52:18.499Z,12.10
2023-02-19T00:54:46.865Z,12.22
2023-02-19T00:57:16.597Z,12.16
2023-02-19T00:59:45.254Z,12.12
2023-02-19T01:02:13.690Z,12.08
2023-02-19T01:04:42.070Z,12.07
2023-02-19T01:07:10.912Z,12.12
2023-02-19T01:09:39.286Z,12.00
2023-02-19T01:12:08.302Z,12.08
2023-02-19T01:14:37.983Z,12.10
2023-02-19T01:17:06.261Z,12.09
2023-02-19T01:19:34.601Z,12.24
2023-02-19T01:22:03.007Z,12.29
2023-02-19T01:24:31.725Z,12.29
2023-02-19T01:27:00.121Z,12.25
2023-02-19T01:29:28.501Z,12.19
2023-02-19T01:31:58.511Z,12.26
2023-02-19T01:34:27.240Z,12.20
2023-02-19T01:36:55.557Z,12.16
2023-02-19T01:39:23.921Z,12.19
2023-02-19T01:41:52.201Z,12.17
2023-02-19T01:45:14.342Z,12.00
2023-02-19T01:47:44.203Z,12.03
2023-02-19T01:50:12.742Z,11.68
2023-02-19T01:52:41.216Z,11.98
2023-02-19T01:55:13.500Z,11.94
2023-02-19T01:57:47.394Z,12.08
2023-02-19T02:00:18.666Z,12.04
2023-02-19T02:02:53.261Z,12.06
2023-02-19T02:05:35.834Z,11.28
2023-02-19T02:08:22.742Z,11.98
2023-02-19T02:10:52.309Z,11.83
2023-02-19T02:13:21.106Z,11.88
2023-02-19T02:16:01.400Z,11.83
2023-02-19T02:18:44.992Z,11.75
2023-02-19T02:21:44.546Z,11.71
2023-02-19T02:24:45.533Z,11.53
2023-02-19T02:27:41.781Z,11.69
2023-02-19T02:30:36.091Z,11.72
2023-02-19T02:33:16.035Z,11.73
2023-02-19T02:35:49.425Z,11.78
2023-02-19T02:38:22.808Z,11.80
2023-02-19T02:40:51.747Z,11.74
2023-02-19T02:43:20.385Z,11.64
2023-02-19T02:45:50.313Z,11.72
2023-02-19T02:48:37.190Z,11.67
2023-02-19T02:51:15.554Z,11.70
2023-02-19T02:54:18.661Z,11.75
2023-02-19T02:56:49.629Z,11.71
2023-02-19T02:59:23.575Z,11.83
2023-02-19T03:02:14.119Z,11.78
2023-02-19T03:05:09.506Z,11.79
2023-02-19T03:07:42.465Z,11.72
2023-02-19T03:10:18.338Z,11.85
2023-02-19T03:13:04.956Z,11.89
2023-02-19T03:15:56.712Z,11.76
2023-02-19T03:18:47.006Z,11.87
2023-02-19T03:21:18.558Z,12.00
2023-02-19T03:24:05.351Z,11.93
2023-02-19T03:26:36.513Z,11.92
2023-02-19T03:29:25.412Z,11.90
2023-02-19T03:32:04.005Z,11.67
2023-02-19T03:34:39.156Z,11.75
2023-02-19T03:37:14.391Z,11.73
2023-02-19T03:39:45.337Z,11.64
2023-02-19T03:42:24.927Z,11.61
2023-02-19T03:45:12.356Z,11.56
2023-02-19T03:47:49.861Z,11.31
2023-02-19T03:50:25.643Z,11.41
2023-02-19T03:53:06.207Z,11.26
2023-02-19T03:55:42.615Z,11.34
2023-02-19T03:58:16.112Z,11.28
2023-02-19T04:00:52.423Z,11.29
2023-02-19T04:03:27.794Z,11.18
2023-02-19T04:06:03.761Z,11.15
2023-02-19T04:08:36.213Z,11.03
2023-02-19T04:11:07.866Z,10.97
2023-02-19T04:13:44.748Z,11.02
2023-02-19T04:16:21.148Z,11.18
2023-02-19T04:18:53.322Z,11.15
2023-02-19T04:21:24.496Z,11.21
2023-02-19T04:23:53.263Z,11.22
2023-02-19T04:26:23.920Z,11.25
2023-02-19T04:28:52.207Z,11.24
2023-02-19T04:31:20.561Z,11.14
2023-02-19T04:33:49.063Z,11.18
2023-02-19T04:36:17.357Z,11.20
2023-02-19T04:38:47.035Z,11.16
2023-02-19T04:41:15.413Z,11.20
2023-02-19T04:43:43.674Z,11.19
2023-02-19T04:46:12.053Z,11.05
2023-02-19T04:48:40.344Z,11.22
2023-02-19T04:51:09.585Z,11.11
2023-02-19T04:53:38.414Z,11.08
2023-02-19T04:56:09.684Z,11.04
2023-02-19T04:58:38.326Z,10.99
2023-02-19T05:01:07.578Z,10.98
2023-02-19T05:03:36.227Z,10.95
2023-02-19T05:06:05.555Z,10.93
2023-02-19T05:08:34.210Z,10.85
2023-02-19T05:11:04.554Z,10.82
2023-02-19T05:13:35.110Z,10.84
2023-02-19T05:16:05.535Z,10.89
2023-02-19T05:18:35.381Z,10.75
2023-02-19T05:21:03.907Z,10.79
2023-02-19T05:23:32.226Z,10.74
2023-02-19T05:26:00.620Z,10.76
2023-02-19T05:28:29.628Z,10.79
2023-02-19T05:30:59.476Z,10.68
2023-02-19T05:33:27.926Z,10.65
2023-02-19T05:35:57.073Z,10.58
2023-02-19T05:38:25.797Z,10.44
2023-02-19T05:40:54.085Z,10.54
2023-02-19T05:43:22.424Z,10.50
2023-02-19T05:45:50.675Z,10.65
2023-02-19T05:48:20.357Z,10.63
2023-02-19T05:50:48.636Z,10.62
2023-02-19T05:53:16.951Z,10.62
2023-02-19T05:55:45.318Z,10.69
2023-02-19T05:58:13.634Z,10.83
2023-02-19T06:00:41.981Z,10.73
2023-02-19T06:03:10.341Z,10.78
2023-02-19T06:05:40.321Z,10.78
2023-02-19T06:08:08.809Z,10.81
2023-02-19T06:10:38.437Z,10.80
2023-02-19T06:13:06.810Z,10.86
2023-02-19T06:15:35.186Z,10.80
2023-02-19T06:18:04.400Z,10.59
2023-02-19T06:20:32.981Z,10.74
2023-02-19T06:23:02.761Z,10.06
2023-02-19T06:25:31.153Z,10.60
2023-02-19T06:27:59.524Z,10.57
2023-02-19T06:30:27.832Z,10.58
2023-02-19T06:32:56.215Z,10.58
2023-02-19T06:35:24.586Z,10.54
2023-02-19T06:37:52.961Z,10.55
2023-02-19T06:40:22.754Z,10.69
2023-02-19T06:42:51.083Z,10.71
2023-02-19T06:45:19.468Z,10.80
2023-02-19T06:47:48.019Z,10.77
2023-02-19T06:50:16.953Z,9.93
2023-02-19T06:52:45.590Z,10.78
2023-02-19T06:55:14.169Z,10.76
2023-02-19T06:57:44.185Z,10.55
2023-02-19T07:00:13.628Z,9.03
2023-02-19T07:02:42.098Z,10.97
2023-02-19T07:05:11.259Z,10.70
2023-02-19T07:07:39.697Z,10.66
2023-02-19T07:10:08.901Z,10.76
2023-02-19T07:12:40.563Z,10.59
2023-02-19T07:15:11.552Z,10.74
2023-02-19T07:17:40.113Z,10.73
2023-02-19T07:20:09.042Z,10.59
2023-02-19T07:22:37.631Z,10.61
2023-02-19T07:25:06.707Z,10.72
2023-02-19T07:27:35.210Z,10.69
2023-02-19T07:30:04.089Z,10.67
2023-02-19T07:32:33.962Z,10.75
2023-02-19T07:35:02.710Z,10.80
2023-02-19T07:37:31.354Z,10.69
2023-02-19T07:39:59.933Z,10.64
2023-02-19T07:42:28.428Z,10.57
2023-02-19T07:44:58.431Z,10.40
2023-02-19T07:47:28.899Z,10.31
2023-02-19T07:49:58.801Z,10.45
2023-02-19T07:52:27.416Z,10.47
2023-02-19T07:54:56.100Z,10.39
2023-02-19T07:57:31.364Z,10.38
2023-02-19T08:00:00.277Z,10.45
2023-02-19T08:02:45.989Z,10.30
2023-02-19T08:05:16.147Z,10.33
2023-02-19T08:07:45.038Z,10.22
2023-02-19T08:10:32.361Z,10.16
2023-02-19T08:13:22.652Z,10.33
2023-02-19T08:15:55.094Z,10.14
2023-02-19T08:18:27.215Z,10.39
2023-02-19T08:20:58.786Z,10.41
2023-02-19T08:23:27.901Z,10.44
2023-02-19T08:26:02.162Z,10.21
2023-02-19T08:28:31.228Z,10.47
2023-02-19T08:31:08.138Z,10.56
2023-02-19T08:33:36.872Z,9.87
2023-02-19T08:36:09.838Z,10.52
2023-02-19T08:38:40.197Z,10.25
2023-02-19T08:41:10.994Z,10.50
2023-02-19T08:43:39.831Z,10.57
2023-02-19T08:46:12.530Z,10.40
2023-02-19T08:48:41.911Z,10.18
2023-02-19T08:51:13.335Z,10.54
2023-02-19T08:53:44.728Z,10.47
2023-02-19T08:56:16.158Z,10.10
2023-02-19T08:58:45.671Z,10.34
2023-02-19T09:01:18.392Z,10.41
2023-02-19T09:03:47.130Z,10.45
2023-02-19T09:06:20.417Z,10.38
2023-02-19T09:08:48.904Z,10.68
2023-02-19T09:11:17.504Z,10.39
2023-02-19T09:13:46.647Z,10.53
2023-02-19T09:16:15.155Z,10.64
2023-02-19T09:18:45.977Z,10.95
2023-02-19T09:21:14.765Z,10.75
2023-02-19T09:23:44.746Z,11.10
2023-02-19T09:26:14.114Z,11.09
2023-02-19T09:28:43.317Z,10.82
2023-02-19T09:31:15.127Z,11.69
2023-02-19T09:33:44.955Z,9.83
2023-02-19T09:36:16.961Z,11.79
2023-02-19T09:38:47.164Z,11.54
2023-02-19T09:41:29.423Z,11.63
2023-02-19T09:43:59.640Z,11.65
2023-02-19T09:46:35.844Z,11.10
2023-02-19T09:49:08.892Z,10.65
2023-02-19T09:51:39.543Z,11.09
2023-02-19T09:54:22.091Z,11.05
2023-02-19T09:56:50.898Z,11.36
2023-02-19T09:59:24.136Z,10.83
2023-02-19T10:01:59.288Z,11.06
2023-02-19T10:04:28.872Z,11.13
2023-02-19T10:07:03.464Z,11.12
2023-02-19T10:09:33.660Z,10.75
2023-02-19T10:12:02.644Z,10.72
2023-02-19T10:14:37.997Z,10.89
2023-02-19T10:17:08.149Z,10.68
2023-02-19T10:19:38.170Z,10.65
2023-02-19T10:22:06.987Z,10.54
2023-02-19T10:24:44.955Z,10.55
2023-02-19T10:27:15.273Z,10.16
2023-02-19T10:29:45.621Z,10.76
2023-02-19T10:32:20.476Z,10.69
2023-02-19T10:34:51.135Z,9.99
2023-02-19T10:37:20.466Z,10.33
2023-02-19T10:39:52.105Z,10.20
2023-02-19T10:42:23.946Z,9.97
2023-02-19T10:44:58.540Z,10.07
2023-02-19T10:47:32.713Z,10.09
2023-02-19T10:50:04.489Z,10.26
2023-02-19T10:52:36.693Z,10.44
2023-02-19T10:55:31.845Z,10.44
2023-02-19T10:58:24.623Z,10.40
2023-02-19T11:01:13.972Z,10.51
2023-02-19T11:03:42.776Z,10.50
2023-02-19T11:06:16.660Z,10.65
2023-02-19T11:08:54.875Z,10.77
2023-02-19T11:11:31.656Z,10.78
2023-02-19T11:14:05.242Z,10.75
2023-02-19T11:16:45.986Z,10.62
2023-02-19T11:19:26.764Z,10.80
2023-02-19T11:21:59.832Z,10.84
2023-02-19T11:24:35.314Z,10.82
2023-02-19T11:27:08.619Z,10.70
2023-02-19T11:29:37.025Z,10.92
2023-02-19T11:32:29.384Z,10.98
2023-02-19T11:35:25.158Z,11.08
2023-02-19T11:37:59.541Z,11.04
2023-02-19T11:40:44.136Z,10.81
2023-02-19T11:43:33.605Z,10.87
2023-02-19T11:46:09.573Z,10.84
2023-02-19T11:48:54.942Z,10.32
2023-02-19T11:51:52.163Z,10.90
2023-02-19T11:54:52.730Z,10.96
2023-02-19T11:57:40.389Z,10.25
2023-02-19T12:00:25.938Z,10.42
2023-02-19T12:03:30.722Z,10.86
2023-02-19T12:06:20.951Z,10.98
2023-02-19T12:09:22.948Z,10.97
2023-02-19T12:12:37.717Z,11.03
2023-02-19T12:15:39.690Z,11.26
2023-02-19T12:19:10.048Z,10.95
2023-02-19T12:22:16.042Z,11.26
2023-02-19T12:25:39.069Z,11.67
2023-02-19T12:28:30.674Z,11.53
2023-02-19T12:31:35.062Z,11.47
2023-02-19T12:34:31.490Z,11.79
2023-02-19T12:37:17.817Z,11.68
2023-02-19T12:39:59.330Z,11.25
2023-02-19T12:42:45.978Z,11.54
2023-02-19T12:45:22.858Z,11.07
2023-02-19T12:48:02.918Z,11.11
2023-02-19T12:50:33.259Z,10.61
2023-02-19T12:53:08.494Z,10.84
2023-02-19T12:55:42.511Z,10.78
2023-02-19T12:58:18.341Z,10.70
2023-02-19T13:00:53.487Z,10.83
2023-02-19T13:03:32.611Z,10.75
2023-02-19T13:06:10.517Z,10.81
2023-02-19T13:09:05.447Z,11.16
2023-02-19T13:11:41.115Z,11.05
2023-02-19T13:14:20.737Z,11.06
2023-02-19T13:16:57.456Z,10.90
2023-02-19T13:19:27.506Z,11.13
2023-02-19T13:22:23.880Z,11.03
2023-02-19T13:24:53.469Z,10.70
2023-02-19T13:27:48.372Z,10.61
2023-02-19T13:30:34.815Z,10.14
2023-02-19T13:33:19.461Z,10.68
2023-02-19T13:36:08.324Z,10.77
2023-02-19T13:38:41.621Z,11.08
2023-02-19T13:41:30.415Z,11.16
2023-02-19T13:44:03.212Z,10.93
2023-02-19T13:46:41.701Z,10.86
2023-02-19T13:49:43.264Z,10.92
2023-02-19T13:52:42.907Z,10.73
2023-02-19T13:55:52.314Z,10.85
2023-02-19T13:59:01.468Z,10.64
2023-02-19T14:02:17.657Z,10.80
2023-02-19T14:04:55.594Z,10.64
2023-02-19T14:08:04.201Z,10.62
2023-02-19T14:11:03.357Z,10.73
2023-02-19T14:14:01.677Z,10.90
2023-02-19T14:17:04.563Z,10.75
2023-02-19T14:19:52.688Z,10.70
2023-02-19T14:23:10.160Z,11.04
2023-02-19T14:25:47.264Z,10.47
2023-02-19T14:28:42.538Z,10.86
2023-02-19T14:31:19.707Z,10.74
2023-02-19T14:33:51.593Z,10.78
2023-02-19T14:36:32.903Z,10.87
2023-02-19T14:39:07.197Z,10.81
2023-02-19T14:41:41.804Z,10.69
2023-02-19T14:44:19.477Z,10.45
2023-02-19T14:47:00.250Z,10.86
2023-02-19T14:49:36.292Z,10.77
2023-02-19T14:52:08.504Z,10.85
2023-02-19T14:54:43.902Z,10.13
2023-02-19T14:57:20.413Z,10.60
2023-02-19T14:59:58.687Z,10.51
2023-02-19T15:02:28.781Z,10.41
2023-02-19T15:04:58.595Z,8.13
2023-02-19T15:07:31.570Z,10.52
2023-02-19T15:10:05.911Z,10.51
2023-02-19T15:12:41.629Z,10.75
2023-02-19T15:15:18.445Z,10.54
2023-02-19T15:17:47.105Z,10.38
2023-02-19T15:20:21.138Z,10.40
2023-02-19T15:22:50.191Z,10.18
2023-02-19T15:25:22.945Z,10.14
2023-02-19T15:27:52.169Z,10.17
2023-02-19T15:30:25.533Z,9.88
2023-02-19T15:32:56.347Z,9.57
2023-02-19T15:35:25.348Z,9.87
2023-02-19T15:37:55.678Z,9.90
2023-02-19T15:40:32.472Z,9.55
2023-02-19T15:43:02.418Z,9.47
2023-02-19T15:45:40.400Z,9.43
2023-02-19T15:48:15.456Z,9.42
2023-02-19T15:50:49.260Z,7.03
2023-02-19T15:53:20.593Z,9.24
2023-02-19T15:56:00.412Z,9.18
2023-02-19T15:58:34.732Z,9.37
2023-02-19T16:01:08.486Z,8.39
2023-02-19T16:03:37.148Z,9.31
2023-02-19T16:06:11.334Z,9.12
2023-02-19T16:08:41.967Z,9.13
2023-02-19T16:11:34.234Z,9.09
2023-02-19T16:14:24.171Z,9.07
2023-02-19T16:16:56.156Z,9.09
2023-02-19T16:19:28.493Z,9.14
2023-02-19T16:21:57.955Z,9.31
2023-02-19T16:24:32.954Z,9.32
2023-02-19T16:27:04.619Z,9.24
2023-02-19T16:29:34.549Z,9.29
2023-02-19T16:32:10.372Z,8.96
2023-02-19T16:34:42.908Z,7.24
2023-02-19T16:37:37.462Z,9.34
2023-02-19T16:40:59.890Z,9.23
2023-02-19T16:43:32.946Z,9.60
2023-02-19T16:46:01.901Z,9.54
2023-02-19T16:48:32.348Z,8.87
2023-02-19T16:51:01.625Z,9.54
2023-02-19T16:53:30.490Z,8.92
2023-02-19T16:55:59.800Z,9.73
2023-02-19T16:58:29.778Z,9.66
2023-02-19T17:00:58.651Z,9.48
2023-02-19T17:03:27.935Z,9.12
2023-02-19T17:05:57.846Z,9.49
2023-02-19T17:08:37.094Z,9.77
2023-02-19T17:11:08.880Z,9.81
2023-02-19T17:13:41.430Z,9.79
2023-02-19T17:16:18.228Z,9.86
2023-02-19T17:18:46.800Z,9.96
2023-02-19T17:21:18.001Z,9.73
2023-02-19T17:23:46.735Z,8.85
2023-02-19T17:26:16.816Z,9.76
2023-02-19T17:28:49.972Z,9.61
2023-02-19T17:31:19.128Z,9.61
2023-02-19T17:33:47.663Z,9.56
2023-02-19T17:36:19.593Z,10.16
2023-02-19T17:38:48.117Z,10.21
2023-02-19T17:41:17.009Z,10.32
2023-02-19T17:43:45.780Z,10.27
2023-02-19T17:46:18.615Z,10.16
2023-02-19T17:48:47.164Z,10.30
2023-02-19T17:51:15.742Z,9.57
2023-02-19T17:53:46.594Z,10.22
2023-02-19T17:56:19.831Z,10.40
2023-02-19T17:58:49.688Z,10.21
2023-02-19T18:01:19.724Z,10.20
2023-02-19T18:03:48.622Z,10.40
2023-02-19T18:06:17.328Z,10.43
2023-02-19T18:08:50.943Z,10.41
2023-02-19T18:11:22.195Z,10.43
2023-02-19T18:13:52.017Z,9.85
2023-02-19T18:16:22.772Z,10.47
2023-02-19T18:18:51.299Z,10.51
2023-02-19T18:21:19.919Z,9.77
2023-02-19T18:23:48.913Z,10.16
2023-02-19T18:26:21.285Z,10.38
2023-02-19T18:28:50.052Z,10.00
2023-02-19T18:31:20.757Z,10.36
2023-02-19T18:33:50.476Z,10.29
2023-02-19T18:36:18.952Z,10.14
2023-02-19T18:38:47.588Z,10.21
2023-02-19T18:41:20.321Z,10.22
2023-02-19T18:43:49.852Z,10.27
2023-02-19T18:46:24.270Z,10.31
2023-02-19T18:48:54.388Z,10.31
2023-02-19T18:51:23.622Z,10.28
2023-02-19T18:53:54.456Z,10.07
2023-02-19T18:56:23.105Z,10.21
2023-02-19T18:58:51.676Z,9.93
2023-02-19T19:01:20.355Z,10.25
2023-02-19T19:03:48.925Z,10.28
2023-02-19T19:06:19.033Z,10.30
2023-02-19T19:08:48.518Z,9.96
2023-02-19T19:11:17.180Z,10.26
2023-02-19T19:13:47.997Z,9.96
2023-02-19T19:16:16.589Z,10.20
2023-02-19T19:18:45.719Z,10.16
2023-02-19T19:21:18.609Z,10.12
2023-02-19T19:23:47.911Z,10.01
2023-02-19T19:26:17.423Z,9.42
2023-02-19T19:28:46.902Z,10.08
2023-02-19T19:31:17.861Z,10.07
2023-02-19T19:33:48.509Z,10.06
2023-02-19T19:36:24.379Z,8.21
2023-02-19T19:38:53.548Z,10.03
2023-02-19T19:41:27.279Z,9.64
2023-02-19T19:43:55.787Z,10.00
2023-02-19T19:46:24.252Z,9.92
2023-02-19T19:48:54.203Z,8.06
2023-02-19T19:51:40.317Z,9.94
2023-02-19T19:54:08.814Z,9.80
2023-02-19T19:56:42.427Z,9.79
2023-02-19T19:59:12.008Z,9.87
2023-02-19T20:01:40.843Z,9.87
2023-02-19T20:04:11.626Z,9.71
2023-02-19T20:06:41.587Z,9.89
2023-02-19T20:09:12.813Z,9.25
2023-02-19T20:11:49.449Z,9.65
2023-02-19T20:14:22.561Z,9.93
2023-02-19T20:16:51.389Z,9.90
2023-02-19T20:19:21.279Z,9.90
2023-02-19T20:21:56.172Z,9.90
2023-02-19T20:24:28.856Z,9.80
2023-02-19T20:27:00.509Z,9.86
2023-02-19T20:29:30.010Z,9.66
2023-02-19T20:32:00.406Z,9.91
2023-02-19T20:34:29.720Z,9.87
2023-02-19T20:37:04.308Z,9.85
2023-02-19T20:39:33.502Z,9.79
2023-02-19T20:42:02.866Z,9.76
2023-02-19T20:44:34.762Z,9.61
2023-02-19T20:47:03.236Z,9.65
2023-02-19T20:49:34.343Z,9.71
2023-02-19T20:52:09.072Z,9.71
2023-02-19T20:54:40.010Z,9.68
2023-02-19T20:57:09.796Z,9.68
2023-02-19T20:59:40.863Z,9.65
2023-02-19T21:02:24.590Z,9.60
2023-02-19T21:04:53.215Z,9.65
2023-02-19T21:07:23.513Z,9.71
2023-02-19T21:09:52.992Z,9.69
2023-02-19T21:12:24.837Z,9.43
2023-02-19T21:14:53.322Z,9.65
2023-02-19T21:17:21.868Z,9.55
2023-02-19T21:19:53.458Z,8.96
2023-02-19T21:22:23.752Z,9.63
2023-02-19T21:24:53.722Z,9.32
2023-02-19T21:27:22.334Z,9.53
2023-02-19T21:29:54.460Z,9.54
2023-02-19T21:32:23.082Z,9.28
2023-02-19T21:34:51.830Z,9.58
2023-02-19T21:37:22.907Z,9.60
2023-02-19T21:39:54.780Z,9.55
2023-02-19T21:42:23.191Z,9.42
2023-02-19T21:44:51.737Z,9.50
2023-02-19T21:47:20.188Z,9.00
2023-02-19T21:49:48.857Z,9.52
2023-02-19T21:52:18.065Z,9.50
2023-02-19T21:54:46.994Z,9.28
2023-02-19T21:57:17.033Z,8.94
2023-02-19T21:59:45.689Z,9.50
2023-02-19T22:02:14.358Z,9.39
2023-02-19T22:04:42.996Z,9.50
2023-02-19T22:07:11.447Z,9.54
2023-02-19T22:09:39.837Z,9.43
2023-02-19T22:12:08.540Z,9.48
2023-02-19T22:14:38.573Z,9.59
2023-02-19T22:17:09.096Z,9.47
2023-02-19T22:19:37.567Z,9.63
2023-02-19T22:22:06.239Z,9.50
2023-02-19T22:24:34.632Z,9.62
2023-02-19T22:27:03.229Z,9.49
2023-02-19T22:29:31.995Z,9.22
2023-02-19T22:32:02.031Z,9.58
2023-02-19T22:34:30.561Z,9.43
2023-02-19T22:36:58.926Z,9.60
2023-02-19T22:39:28.293Z,9.59
2023-02-19T22:41:56.867Z,9.63
2023-02-19T22:44:28.101Z,9.69
2023-02-19T22:46:57.939Z,9.73
2023-02-19T22:49:27.800Z,9.57
2023-02-19T22:51:59.754Z,9.54
2023-02-19T22:54:28.287Z,9.79
2023-02-19T22:56:57.247Z,9.73
2023-02-19T22:59:25.951Z,9.72
2023-02-19T23:01:55.129Z,9.59
2023-02-19T23:04:29.252Z,9.56
2023-02-19T23:06:57.800Z,9.38
2023-02-19T23:09:29.429Z,9.58
2023-02-19T23:12:03.562Z,9.52
2023-02-19T23:14:33.119Z,9.64
2023-02-19T23:17:01.928Z,9.59
2023-02-19T23:19:33.440Z,9.32
2023-02-19T23:22:05.302Z,9.50
2023-02-19T23:24:34.025Z,8.74
2023-02-19T23:27:02.499Z,9.50
2023-02-19T23:29:31.677Z,9.48
2023-02-19T23:32:02.453Z,9.47
2023-02-19T23:34:32.380Z,8.38
2023-02-19T23:37:02.313Z,9.50
2023-02-19T23:39:33.259Z,9.53
2023-02-19T23:42:04.102Z,9.52
2023-02-19T23:44:36.570Z,9.48
2023-02-19T23:47:04.988Z,9.50
2023-02-19T23:49:34.747Z,9.48
2023-02-19T23:52:03.351Z,9.58
2023-02-19T23:54:31.983Z,9.59
2023-02-19T23:57:00.456Z,9.65
2023-02-19T23:59:28.843Z,9.65
